createdAt,value
2018-02-20T00:00:46.627Z,24.00
2018-02-20T00:03:14.191Z,22.73
2018-02-20T00:05:41.736Z,23.80
2018-02-20T00:08:09.283Z,22.60
2018-02-20T00:10:36.843Z,23.57
2018-02-20T00:13:04.401Z,21.00
2018-02-20T00:15:31.978Z,23.27
2018-02-20T00:17:59.519Z,20.23
2018-02-20T00:20:27.067Z,21.47
2018-02-20T00:22:55.219Z,21.70
2018-02-20T00:25:23.622Z,23.60
2018-02-20T00:27:51.246Z,22.07
2018-02-20T00:30:19.549Z,22.80
2018-02-20T00:32:47.103Z,21.73
2018-02-20T00:35:14.664Z,21.70
2018-02-20T00:37:42.275Z,23.20
2018-02-20T00:40:09.852Z,21.60
2018-02-20T00:42:38.536Z,22.80
2018-02-20T00:45:06.606Z,23.43
2018-02-20T00:47:34.957Z,22.47
2018-02-20T00:50:02.620Z,24.00
2018-02-20T00:52:30.977Z,21.93
2018-02-20T00:54:58.649Z,22.90
2018-02-20T00:57:29.638Z,23.37
2018-02-20T00:59:57.329Z,20.53
2018-02-20T01:02:27.673Z,21.70
2018-02-20T01:04:58.832Z,23.73
2018-02-20T01:07:26.306Z,21.37
2018-02-20T01:09:54.039Z,21.03
2018-02-20T01:12:21.685Z,21.70
2018-02-20T01:14:49.941Z,22.97
2018-02-20T01:17:18.497Z,23.70
2018-02-20T01:19:46.019Z,22.83
2018-02-20T01:22:13.628Z,22.57
2018-02-20T01:24:41.939Z,21.00
2018-02-20T01:27:09.507Z,20.50
2018-02-20T01:29:37.061Z,21.00
2018-02-20T01:32:04.641Z,21.13
2018-02-20T01:34:32.179Z,22.53
2018-02-20T01:36:59.710Z,21.60
2018-02-20T01:39:27.198Z,21.57
2018-02-20T01:41:54.713Z,22.10
2018-02-20T01:44:23.439Z,20.77
2018-02-20T01:46:50.941Z,21.50
2018-02-20T01:49:20.131Z,22.90
2018-02-20T01:51:48.453Z,21.57
2018-02-20T01:54:15.998Z,21.50
2018-02-20T01:56:43.511Z,20.53
2018-02-20T01:59:11.040Z,22.07
2018-02-20T02:01:38.683Z,22.53
2018-02-20T02:04:06.227Z,21.47
2018-02-20T02:06:34.019Z,22.50
2018-02-20T02:09:02.309Z,22.87
2018-02-20T02:11:29.850Z,21.37
2018-02-20T02:13:57.343Z,22.33
2018-02-20T02:16:24.846Z,20.50
2018-02-20T02:18:52.361Z,23.33
2018-02-20T02:21:19.885Z,21.73
2018-02-20T02:23:47.430Z,23.87
2018-02-20T02:26:15.050Z,22.77
2018-02-20T02:28:42.563Z,20.83
2018-02-20T02:31:10.051Z,24.00
2018-02-20T02:33:37.841Z,20.67
2018-02-20T02:36:05.799Z,21.60
2018-02-20T02:38:33.360Z,22.87
2018-02-20T02:41:00.844Z,23.50
2018-02-20T02:43:28.397Z,22.70
2018-02-20T02:45:56.118Z,23.57
2018-02-20T02:48:23.694Z,22.20
2018-02-20T02:50:51.198Z,25.90
2018-02-20T02:53:18.700Z,21.77
2018-02-20T02:55:46.492Z,22.33
2018-02-20T02:58:13.985Z,22.50
2018-02-20T03:00:41.507Z,24.40
2018-02-20T03:03:09.016Z,25.77
2018-02-20T03:05:37.433Z,24.13
2018-02-20T03:08:04.944Z,20.73
2018-02-20T03:10:32.494Z,23.17
2018-02-20T03:13:00.008Z,23.17
2018-02-20T03:15:27.501Z,23.10
2018-02-20T03:17:55.020Z,21.57
2018-02-20T03:20:22.519Z,22.67
2018-02-20T03:22:50.038Z,21.40
2018-02-20T03:25:17.551Z,23.17
2018-02-20T03:27:45.068Z,23.13
2018-02-20T03:30:12.798Z,24.47
2018-02-20T03:32:40.479Z,23.67
2018-02-20T03:35:08.196Z,23.00
2018-02-20T03:37:35.751Z,23.00
2018-02-20T03:40:03.492Z,22.13
2018-02-20T03:42:31.700Z,22.90
2018-02-20T03:44:59.284Z,21.90
2018-02-20T03:47:26.866Z,24.97
2018-02-20T03:49:54.373Z,23.07
2018-02-20T03:52:21.891Z,23.00
2018-02-20T03:54:50.182Z,24.60
2018-02-20T03:57:17.701Z,22.93
2018-02-20T03:59:45.191Z,24.48
2018-02-20T04:02:13.447Z,25.30
2018-02-20T04:04:41.045Z,23.00
2018-02-20T04:07:08.558Z,23.98
2018-02-20T04:09:36.061Z,23.92
2018-02-20T04:12:03.577Z,24.57
2018-02-20T04:14:31.096Z,23.45
2018-02-20T04:16:58.845Z,22.25
2018-02-20T04:19:26.611Z,23.50
2018-02-20T04:21:54.098Z,22.67
2018-02-20T04:24:21.696Z,22.57
2018-02-20T04:26:49.241Z,24.00
2018-02-20T04:29:16.748Z,24.00
2018-02-20T04:31:44.308Z,23.77
2018-02-20T04:34:13.430Z,24.30
2018-02-20T04:36:40.967Z,22.77
2018-02-20T04:39:08.459Z,23.97
2018-02-20T04:41:36.043Z,22.73
2018-02-20T04:44:03.593Z,23.03
2018-02-20T04:46:31.911Z,24.27
2018-02-20T04:48:59.518Z,22.80
2018-02-20T04:51:27.810Z,21.70
2018-02-20T04:53:55.306Z,21.70
2018-02-20T04:56:22.826Z,22.90
2018-02-20T04:58:50.330Z,21.57
2018-02-20T05:01:17.860Z,20.23
2018-02-20T05:03:45.354Z,22.33
2018-02-20T05:06:12.867Z,22.92
2018-02-20T05:08:41.127Z,22.70
2018-02-20T05:11:08.653Z,21.70
2018-02-20T05:13:36.159Z,21.00
2018-02-20T05:16:04.456Z,21.77
2018-02-20T05:18:31.946Z,23.87
2018-02-20T05:20:59.462Z,23.37
2018-02-20T05:23:27.733Z,21.60
2018-02-20T05:25:55.348Z,22.23
2018-02-20T05:28:22.941Z,20.50
2018-02-20T05:30:51.285Z,21.73
2018-02-20T05:33:18.878Z,21.87
2018-02-20T05:35:47.312Z,21.83
2018-02-20T05:38:14.882Z,22.73
2018-02-20T05:40:42.424Z,21.40
2018-02-20T05:43:10.071Z,22.30
2018-02-20T05:45:37.624Z,23.33
2018-02-20T05:48:05.199Z,20.67
2018-02-20T05:50:32.830Z,20.27
2018-02-20T05:53:00.956Z,22.65
2018-02-20T05:55:28.526Z,23.30
2018-02-20T05:57:56.076Z,20.67
2018-02-20T06:00:23.591Z,22.03
2018-02-20T06:02:51.138Z,22.25
2018-02-20T06:05:18.718Z,20.92
2018-02-20T06:07:46.278Z,21.00
2018-02-20T06:10:13.845Z,20.65
2018-02-20T06:12:41.397Z,21.77
2018-02-20T06:15:08.999Z,20.40
2018-02-20T06:17:36.600Z,21.37
2018-02-20T06:20:04.177Z,20.90
2018-02-20T06:22:31.748Z,20.27
2018-02-20T06:24:59.286Z,21.03
2018-02-20T06:27:26.852Z,21.95
2018-02-20T06:29:54.452Z,22.73
2018-02-20T06:32:22.009Z,22.10
2018-02-20T06:34:49.547Z,21.27
2018-02-20T06:37:17.083Z,21.37
2018-02-20T06:39:44.641Z,21.83
2018-02-20T06:42:12.133Z,20.73
2018-02-20T06:44:39.681Z,21.23
2018-02-20T06:47:07.201Z,20.77
2018-02-20T06:49:36.304Z,20.03
2018-02-20T06:52:03.896Z,20.90
2018-02-20T06:54:32.250Z,21.48
2018-02-20T06:57:00.357Z,18.83
2018-02-20T06:59:27.847Z,20.23
2018-02-20T07:01:57.003Z,21.60
2018-02-20T07:04:24.527Z,20.40
2018-02-20T07:06:52.251Z,19.87
2018-02-20T07:09:19.740Z,21.23
2018-02-20T07:11:47.251Z,21.97
2018-02-20T07:14:15.560Z,24.20
2018-02-20T07:16:43.082Z,24.03
2018-02-20T07:19:10.589Z,21.77
2018-02-20T07:21:38.117Z,19.97
2018-02-20T07:24:05.620Z,20.87
2018-02-20T07:26:33.145Z,19.47
2018-02-20T07:29:00.662Z,19.57
2018-02-20T07:31:28.202Z,19.97
2018-02-20T07:33:59.955Z,20.73
2018-02-20T07:36:28.431Z,19.00
2018-02-20T07:38:56.651Z,19.07
2018-02-20T07:41:25.079Z,20.90
2018-02-20T07:43:52.607Z,19.00
2018-02-20T07:46:20.796Z,20.17
2018-02-20T07:48:49.061Z,19.17
2018-02-20T07:51:16.602Z,18.10
2018-02-20T07:53:44.139Z,18.13
2018-02-20T07:56:11.683Z,20.50
2018-02-20T07:58:39.188Z,21.07
2018-02-20T08:01:06.683Z,21.43
2018-02-20T08:03:35.088Z,21.40
2018-02-20T08:06:02.692Z,18.90
2018-02-20T08:08:30.194Z,16.53
2018-02-20T08:10:57.701Z,17.60
2018-02-20T08:13:25.209Z,19.60
2018-02-20T08:15:52.732Z,16.17
2018-02-20T08:18:20.254Z,19.20
2018-02-20T08:20:47.824Z,18.67
2018-02-20T08:23:15.392Z,17.40
2018-02-20T08:25:42.980Z,19.20
2018-02-20T08:28:10.527Z,18.57
2018-02-20T08:30:38.786Z,18.33
2018-02-20T08:33:06.331Z,17.97
2018-02-20T08:38:07.597Z,18.17
2018-02-20T08:40:35.109Z,18.57
2018-02-20T08:43:02.615Z,17.77
2018-02-20T08:45:30.645Z,17.63
2018-02-20T08:47:58.187Z,18.30
2018-02-20T08:50:25.664Z,17.80
2018-02-20T08:52:53.177Z,17.80
2018-02-20T08:55:20.699Z,18.30
2018-02-20T08:57:48.215Z,17.60
2018-02-20T09:00:16.500Z,19.00
2018-02-20T09:02:44.018Z,17.10
2018-02-20T09:05:11.535Z,17.30
2018-02-20T09:07:39.111Z,16.40
2018-02-20T09:10:06.591Z,18.43
2018-02-20T09:12:34.104Z,16.37
2018-02-20T09:15:01.622Z,17.20
2018-02-20T09:17:30.236Z,16.17
2018-02-20T09:19:57.745Z,17.27
2018-02-20T09:22:26.209Z,17.97
2018-02-20T09:24:53.785Z,16.67
2018-02-20T09:27:21.291Z,16.20
2018-02-20T09:29:48.794Z,17.17
2018-02-20T09:32:16.311Z,17.90
2018-02-20T09:34:43.829Z,16.70
2018-02-20T09:37:11.350Z,16.90
2018-02-20T09:39:38.835Z,15.70
2018-02-20T09:42:06.361Z,16.70
2018-02-20T09:44:33.886Z,17.10
2018-02-20T09:47:02.273Z,17.77
2018-02-20T09:49:29.845Z,14.80
2018-02-20T09:51:57.397Z,14.93
2018-02-20T09:54:25.011Z,15.40
2018-02-20T09:56:52.751Z,13.33
2018-02-20T09:59:20.289Z,13.33
2018-02-20T10:01:47.828Z,12.43
2018-02-20T10:04:15.362Z,14.40
2018-02-20T10:06:42.933Z,15.50
2018-02-20T10:09:11.255Z,14.70
2018-02-20T10:11:38.745Z,17.50
2018-02-20T10:14:06.264Z,14.07
2018-02-20T10:16:33.783Z,17.27
2018-02-20T10:19:02.038Z,16.63
2018-02-20T10:21:29.637Z,15.53
2018-02-20T10:23:57.883Z,14.53
2018-02-20T10:26:25.388Z,16.33
2018-02-20T10:28:52.905Z,15.00
2018-02-20T10:31:20.401Z,12.70
2018-02-20T10:33:47.901Z,14.43
2018-02-20T10:36:15.384Z,16.00
2018-02-20T10:38:43.658Z,14.67
2018-02-20T10:41:11.939Z,15.70
2018-02-20T10:43:40.192Z,14.80
2018-02-20T10:46:07.736Z,14.60
2018-02-20T10:48:35.227Z,14.23
2018-02-20T10:51:03.501Z,13.80
2018-02-20T10:53:31.778Z,15.40
2018-02-20T10:55:59.290Z,15.40
2018-02-20T10:58:26.824Z,14.57
2018-02-20T11:00:54.332Z,13.47
2018-02-20T11:03:21.860Z,14.00
2018-02-20T11:05:49.427Z,13.83
2018-02-20T11:08:16.955Z,14.80
2018-02-20T11:10:44.480Z,12.53
2018-02-20T11:13:11.998Z,12.37
2018-02-20T11:15:39.509Z,12.93
2018-02-20T11:18:07.781Z,11.53
2018-02-20T11:20:36.061Z,11.17
2018-02-20T11:23:04.370Z,10.77
2018-02-20T11:25:31.877Z,13.40
2018-02-20T11:27:59.438Z,8.97
2018-02-20T11:30:26.950Z,13.20
2018-02-20T11:32:54.450Z,14.87
2018-02-20T11:35:23.518Z,14.73
2018-02-20T11:37:51.068Z,15.30
2018-02-20T11:40:18.613Z,14.20
2018-02-20T11:42:47.085Z,13.47
2018-02-20T11:45:14.656Z,14.40
2018-02-20T11:47:42.162Z,14.03
2018-02-20T11:50:10.516Z,15.00
2018-02-20T11:52:38.026Z,15.43
2018-02-20T11:55:07.490Z,13.50
2018-02-20T11:57:37.537Z,13.60
2018-02-20T12:00:05.926Z,12.57
2018-02-20T12:02:33.452Z,12.30
2018-02-20T12:05:01.019Z,12.90
2018-02-20T12:07:29.409Z,12.97
2018-02-20T12:09:57.731Z,12.43
2018-02-20T12:12:25.276Z,14.20
2018-02-20T12:14:52.788Z,13.10
2018-02-20T12:17:20.362Z,12.90
2018-02-20T12:19:47.861Z,14.37
2018-02-20T12:22:15.397Z,13.30
2018-02-20T12:24:42.915Z,14.10
2018-02-20T12:27:10.475Z,14.00
2018-02-20T12:29:38.043Z,14.17
2018-02-20T12:32:06.326Z,14.40
2018-02-20T12:34:34.659Z,20.83
2018-02-20T12:37:02.170Z,17.50
2018-02-20T12:39:29.699Z,15.87
2018-02-20T12:41:57.183Z,15.30
2018-02-20T12:44:25.433Z,14.60
2018-02-20T12:46:52.973Z,14.17
2018-02-20T12:49:20.496Z,14.13
2018-02-20T12:51:48.025Z,14.17
2018-02-20T12:54:15.591Z,14.33
2018-02-20T12:56:43.098Z,14.20
2018-02-20T12:59:10.647Z,14.57
2018-02-20T13:01:38.119Z,17.07
2018-02-20T13:04:05.734Z,15.90
2018-02-20T13:06:34.006Z,16.93
2018-02-20T13:09:02.293Z,16.87
2018-02-20T13:11:32.816Z,14.30
2018-02-20T13:14:00.355Z,15.97
2018-02-20T13:16:27.864Z,15.50
2018-02-20T13:18:56.178Z,15.57
2018-02-20T13:21:23.769Z,14.80
2018-02-20T13:23:52.045Z,15.13
2018-02-20T13:26:19.578Z,14.60
2018-02-20T13:28:47.113Z,15.80
2018-02-20T13:31:14.664Z,15.70
2018-02-20T13:33:42.177Z,14.00
2018-02-20T13:36:10.471Z,13.13
2018-02-20T13:38:37.966Z,13.90
2018-02-20T13:41:05.506Z,14.90
2018-02-20T13:43:33.028Z,13.73
2018-02-20T13:46:01.362Z,14.50
2018-02-20T13:48:28.894Z,13.90
2018-02-20T13:50:56.415Z,13.40
2018-02-20T13:53:24.752Z,14.37
2018-02-20T13:55:52.265Z,14.00
2018-02-20T13:58:19.844Z,11.93
2018-02-20T14:00:47.466Z,12.27
2018-02-20T14:03:15.846Z,12.90
2018-02-20T14:05:43.515Z,12.87
2018-02-20T14:08:11.887Z,11.03
2018-02-20T14:10:39.522Z,13.20
2018-02-20T14:13:07.081Z,13.30
2018-02-20T14:15:34.669Z,11.97
2018-02-20T14:18:02.492Z,14.43
2018-02-20T14:20:29.982Z,13.60
2018-02-20T14:22:57.517Z,13.83
2018-02-20T14:25:25.211Z,14.83
2018-02-20T14:27:52.770Z,14.10
2018-02-20T14:30:23.309Z,13.10
2018-02-20T14:32:50.895Z,13.37
2018-02-20T14:35:18.401Z,14.00
2018-02-20T14:37:45.898Z,14.30
2018-02-20T14:40:13.423Z,14.43
2018-02-20T14:42:40.892Z,13.67
2018-02-20T14:45:09.188Z,14.13
2018-02-20T14:47:37.072Z,14.70
2018-02-20T14:50:05.989Z,14.63
2018-02-20T14:52:33.514Z,14.57
2018-02-20T14:55:01.024Z,13.47
2018-02-20T14:57:28.667Z,13.67
2018-02-20T14:59:56.173Z,13.80
2018-02-20T15:02:24.537Z,14.80
2018-02-20T15:04:52.860Z,14.10
2018-02-20T15:07:20.356Z,14.73
2018-02-20T15:09:48.148Z,14.23
2018-02-20T15:12:16.408Z,13.50
2018-02-20T15:14:44.683Z,15.27
2018-02-20T15:17:12.215Z,13.80
2018-02-20T15:19:39.724Z,14.90
2018-02-20T15:22:07.973Z,14.23
2018-02-20T15:24:36.247Z,15.30
2018-02-20T15:27:04.528Z,15.43
2018-02-20T15:29:32.840Z,16.47
2018-02-20T15:32:00.356Z,17.47
2018-02-20T15:34:28.649Z,15.83
2018-02-20T15:36:56.933Z,17.10
2018-02-20T15:39:25.192Z,17.37
2018-02-20T15:41:53.469Z,18.03
2018-02-20T15:44:21.731Z,13.13
2018-02-20T15:46:49.257Z,18.10
2018-02-20T15:49:16.746Z,18.37
2018-02-20T15:51:44.303Z,18.90
2018-02-20T15:54:11.788Z,19.13
2018-02-20T15:56:40.308Z,17.53
2018-02-20T15:59:07.795Z,17.53
2018-02-20T16:01:35.364Z,15.80
2018-02-20T16:04:02.869Z,16.60
2018-02-20T16:06:30.397Z,17.37
2018-02-20T16:08:58.652Z,18.10
2018-02-20T16:11:26.183Z,18.47
2018-02-20T16:14:10.497Z,18.80
2018-02-20T16:16:38.066Z,19.10
2018-02-20T16:19:05.595Z,17.17
2018-02-20T16:21:33.854Z,18.87
2018-02-20T16:24:01.789Z,17.50
2018-02-20T16:26:29.547Z,19.57
2018-02-20T16:28:57.070Z,18.30
2018-02-20T16:31:24.621Z,19.17
2018-02-20T16:33:53.138Z,20.40
2018-02-20T16:36:20.676Z,19.33
2018-02-20T16:38:48.214Z,19.80
2018-02-20T16:41:15.737Z,18.13
2018-02-20T16:43:43.784Z,16.80
2018-02-20T16:46:11.318Z,17.30
2018-02-20T16:48:39.001Z,18.50
2018-02-20T16:51:06.570Z,16.13
2018-02-20T16:53:34.158Z,17.90
2018-02-20T16:56:01.717Z,18.43
2018-02-20T16:58:29.303Z,17.53
2018-02-20T17:00:56.839Z,18.23
2018-02-20T17:03:24.339Z,19.07
2018-02-20T17:05:51.883Z,19.70
2018-02-20T17:08:20.208Z,18.27
2018-02-20T17:10:47.756Z,20.80
2018-02-20T17:13:15.301Z,19.83
2018-02-20T17:15:42.829Z,18.90
2018-02-20T17:18:10.806Z,18.17
2018-02-20T17:20:38.353Z,18.10
2018-02-20T17:23:06.663Z,21.33
2018-02-20T17:25:34.204Z,21.10
2018-02-20T17:28:01.733Z,19.80
2018-02-20T17:30:29.287Z,26.67
2018-02-20T17:32:56.880Z,25.67
2018-02-20T17:35:24.680Z,22.50
2018-02-20T17:37:52.202Z,20.10
2018-02-20T17:40:19.814Z,19.30
2018-02-20T17:42:47.406Z,19.30
2018-02-20T17:45:15.063Z,19.77
2018-02-20T17:47:42.589Z,19.00
2018-02-20T17:50:10.517Z,30.63
2018-02-20T17:52:38.795Z,23.50
2018-02-20T17:55:06.931Z,21.70
2018-02-20T17:57:34.501Z,22.37
2018-02-20T18:00:02.024Z,29.43
2018-02-20T18:02:29.984Z,24.90
2018-02-20T18:04:57.507Z,26.00
2018-02-20T18:07:25.108Z,25.73
2018-02-20T18:09:52.682Z,22.93
2018-02-20T18:12:20.299Z,22.47
2018-02-20T18:14:47.812Z,22.87
2018-02-20T18:17:15.358Z,21.77
2018-02-20T18:19:42.918Z,20.53
2018-02-20T18:22:10.497Z,21.83
2018-02-20T18:24:38.065Z,20.67
2018-02-20T18:27:05.583Z,22.97
2018-02-20T18:29:33.116Z,25.17
2018-02-20T18:32:00.679Z,20.93
2018-02-20T18:34:28.212Z,23.27
2018-02-20T18:36:55.734Z,20.27
2018-02-20T18:39:23.476Z,21.53
2018-02-20T18:41:51.322Z,19.77
2018-02-20T18:44:19.426Z,21.17
2018-02-20T18:46:46.968Z,18.90
2018-02-20T18:49:14.493Z,18.27
2018-02-20T18:51:42.039Z,20.27
2018-02-20T18:54:09.576Z,20.40
2018-02-20T18:56:37.143Z,15.93
2018-02-20T18:59:04.695Z,17.03
2018-02-20T19:01:32.258Z,23.23
2018-02-20T19:03:59.831Z,13.20
2018-02-20T19:06:30.246Z,16.37
2018-02-20T19:08:57.810Z,13.60
2018-02-20T19:11:25.342Z,19.63
2018-02-20T19:13:52.901Z,20.30
2018-02-20T19:16:20.466Z,17.67
2018-02-20T19:18:49.197Z,19.30
2018-02-20T19:21:16.782Z,15.40
2018-02-20T19:23:44.332Z,23.13
2018-02-20T19:26:11.844Z,18.37
2018-02-20T19:28:39.401Z,16.10
2018-02-20T19:31:06.933Z,23.40
2018-02-20T19:33:34.468Z,20.57
2018-02-20T19:36:02.023Z,18.00
2018-02-20T19:38:29.538Z,20.47
2018-02-20T19:40:57.183Z,20.97
2018-02-20T19:43:25.629Z,20.00
2018-02-20T19:45:53.234Z,19.60
2018-02-20T19:48:22.367Z,19.20
2018-02-20T19:50:50.084Z,16.17
2018-02-20T19:53:17.683Z,19.07
2018-02-20T19:55:45.320Z,21.13
2018-02-20T19:58:12.961Z,17.67
2018-02-20T20:00:40.547Z,17.80
2018-02-20T20:03:08.075Z,22.33
2018-02-20T20:05:35.594Z,21.10
2018-02-20T20:08:03.133Z,20.37
2018-02-20T20:10:30.678Z,22.00
2018-02-20T20:12:58.226Z,21.40
2018-02-20T20:15:25.796Z,20.70
2018-02-20T20:17:54.033Z,13.57
2018-02-20T20:20:21.543Z,22.00
2018-02-20T20:22:49.845Z,21.03
2018-02-20T20:25:17.368Z,21.70
2018-02-20T20:27:44.928Z,21.60
2018-02-20T20:30:12.573Z,23.07
2018-02-20T20:32:41.191Z,22.47
2018-02-20T20:35:08.800Z,23.00
2018-02-20T20:37:36.372Z,21.00
2018-02-20T20:40:03.910Z,20.00
2018-02-20T20:42:32.207Z,22.47
2018-02-20T20:44:59.853Z,20.30
2018-02-20T20:47:27.359Z,21.80
2018-02-20T20:49:55.826Z,21.90
2018-02-20T20:52:23.401Z,21.37
2018-02-20T20:54:53.065Z,22.80
2018-02-20T20:57:20.623Z,21.20
2018-02-20T20:59:48.245Z,23.50
2018-02-20T21:02:15.786Z,22.07
2018-02-20T21:04:44.566Z,20.40
2018-02-20T21:07:12.192Z,20.30
2018-02-20T21:09:39.730Z,20.80
2018-02-20T21:12:07.226Z,20.60
2018-02-20T21:14:34.817Z,23.40
2018-02-20T21:17:02.625Z,23.57
2018-02-20T21:19:30.158Z,22.20
2018-02-20T21:21:57.677Z,21.63
2018-02-20T21:24:25.228Z,21.80
2018-02-20T21:26:52.885Z,21.00
2018-02-20T21:29:20.373Z,20.10
2018-02-20T21:31:47.948Z,21.23
2018-02-20T21:34:15.502Z,20.50
2018-02-20T21:36:43.061Z,21.40
2018-02-20T21:39:10.604Z,19.17
2018-02-20T21:41:38.233Z,19.97
2018-02-20T21:44:06.655Z,20.80
2018-02-20T21:46:34.195Z,19.90
2018-02-20T21:49:01.741Z,20.27
2018-02-20T21:51:29.274Z,20.70
2018-02-20T21:53:56.942Z,19.17
2018-02-20T21:56:24.496Z,24.87
2018-02-20T21:58:52.693Z,21.70
2018-02-20T22:01:20.466Z,21.10
2018-02-20T22:03:47.966Z,21.23
2018-02-20T22:06:15.605Z,21.67
2018-02-20T22:08:43.117Z,20.60
2018-02-20T22:11:10.673Z,21.70
2018-02-20T22:13:38.201Z,21.27
2018-02-20T22:16:05.792Z,20.70
2018-02-20T22:18:33.285Z,19.63
2018-02-20T22:21:01.790Z,17.70
2018-02-20T22:23:29.439Z,18.53
2018-02-20T22:25:56.986Z,19.43
2018-02-20T22:28:24.555Z,19.40
2018-02-20T22:30:52.124Z,18.90
2018-02-20T22:33:19.903Z,20.40
2018-02-20T22:35:47.540Z,18.50
2018-02-20T22:38:15.121Z,20.70
2018-02-20T22:40:42.892Z,18.73
2018-02-20T22:43:10.508Z,17.97
2018-02-20T22:45:38.045Z,21.40
2018-02-20T22:48:05.819Z,20.50
2018-02-20T22:50:33.973Z,19.43
2018-02-20T22:53:01.484Z,20.30
2018-02-20T22:55:29.070Z,20.97
2018-02-20T22:57:56.605Z,19.07
2018-02-20T23:00:24.210Z,19.53
2018-02-20T23:02:51.772Z,20.17
2018-02-20T23:05:19.236Z,19.00
2018-02-20T23:07:46.740Z,20.10
2018-02-20T23:10:14.557Z,22.43
2018-02-20T23:12:42.058Z,20.10
2018-02-20T23:15:09.593Z,20.70
2018-02-20T23:17:37.081Z,20.97
2018-02-20T23:20:04.637Z,20.83
2018-02-20T23:22:33.119Z,21.23
2018-02-20T23:25:00.645Z,21.00
2018-02-20T23:27:28.159Z,21.50
2018-02-20T23:29:55.632Z,22.00
2018-02-20T23:32:23.331Z,21.80
2018-02-20T23:34:50.817Z,21.70
2018-02-20T23:37:18.357Z,25.03
2018-02-20T23:39:45.909Z,24.10
2018-02-20T23:42:13.443Z,23.83
2018-02-20T23:44:40.985Z,21.10
2018-02-20T23:47:08.512Z,24.07
2018-02-20T23:49:36.019Z,23.97
2018-02-20T23:52:03.552Z,25.00
2018-02-20T23:54:31.084Z,25.73
2018-02-20T23:56:58.909Z,27.53
2018-02-20T23:59:26.390Z,23.57
